sensor_id;sensor_type;location;lat;lon;timestamp;P1;durP1;ratioP1;P2;durP2;ratioP2
4365;SDS011;2196;47.422;9.656;2022-10-13T00:00:55;24.50;;;19.03;;
4365;SDS011;2196;47.422;9.656;2022-10-13T00:03:22;29.67;;;20.47;;
4365;SDS011;2196;47.422;9.656;2022-10-13T00:05:49;22.50;;;19.23;;
4365;SDS011;2196;47.422;9.656;2022-10-13T00:08:17;24.40;;;18.67;;
4365;SDS011;2196;47.422;9.656;2022-10-13T00:10:45;20.87;;;17.47;;
4365;SDS011;2196;47.422;9.656;2022-10-13T00:13:14;28.13;;;21.30;;
4365;SDS011;2196;47.422;9.656;2022-10-13T00:15:44;30.10;;;20.57;;
4365;SDS011;2196;47.422;9.656;2022-10-13T00:18:12;29.27;;;20.63;;
4365;SDS011;2196;47.422;9.656;2022-10-13T00:20:40;23.33;;;19.83;;
4365;SDS011;2196;47.422;9.656;2022-10-13T00:23:08;27.27;;;20.07;;
4365;SDS011;2196;47.422;9.656;2022-10-13T00:25:39;22.77;;;19.13;;
4365;SDS011;2196;47.422;9.656;2022-10-13T00:28:07;21.70;;;17.23;;
4365;SDS011;2196;47.422;9.656;2022-10-13T00:30:34;26.63;;;19.37;;
4365;SDS011;2196;47.422;9.656;2022-10-13T00:33:03;23.77;;;18.87;;
4365;SDS011;2196;47.422;9.656;2022-10-13T00:35:30;24.67;;;17.73;;
4365;SDS011;2196;47.422;9.656;2022-10-13T00:37:57;31.60;;;20.20;;
4365;SDS011;2196;47.422;9.656;2022-10-13T00:40:24;23.93;;;16.70;;
4365;SDS011;2196;47.422;9.656;2022-10-13T00:42:52;24.37;;;17.63;;
4365;SDS011;2196;47.422;9.656;2022-10-13T00:45:19;25.80;;;17.87;;
4365;SDS011;2196;47.422;9.656;2022-10-13T00:47:49;20.67;;;16.73;;
4365;SDS011;2196;47.422;9.656;2022-10-13T00:50:22;30.63;;;18.97;;
4365;SDS011;2196;47.422;9.656;2022-10-13T00:52:51;25.37;;;18.40;;
4365;SDS011;2196;47.422;9.656;2022-10-13T00:55:19;27.00;;;19.43;;
4365;SDS011;2196;47.422;9.656;2022-10-13T00:57:48;25.30;;;17.50;;
4365;SDS011;2196;47.422;9.656;2022-10-13T01:00:19;23.37;;;16.33;;
4365;SDS011;2196;47.422;9.656;2022-10-13T01:02:46;20.03;;;17.77;;
4365;SDS011;2196;47.422;9.656;2022-10-13T01:05:13;23.13;;;17.37;;
4365;SDS011;2196;47.422;9.656;2022-10-13T01:07:43;24.77;;;15.20;;
4365;SDS011;2196;47.422;9.656;2022-10-13T01:10:13;25.33;;;17.57;;
4365;SDS011;2196;47.422;9.656;2022-10-13T01:12:49;24.47;;;17.27;;
4365;SDS011;2196;47.422;9.656;2022-10-13T01:15:25;22.77;;;16.27;;
4365;SDS011;2196;47.422;9.656;2022-10-13T01:17:59;18.43;;;15.00;;
4365;SDS011;2196;47.422;9.656;2022-10-13T01:20:41;17.90;;;14.77;;
4365;SDS011;2196;47.422;9.656;2022-10-13T01:23:29;20.77;;;15.67;;
4365;SDS011;2196;47.422;9.656;2022-10-13T01:26:32;20.97;;;16.10;;
4365;SDS011;2196;47.422;9.656;2022-10-13T01:29:21;21.70;;;14.90;;
4365;SDS011;2196;47.422;9.656;2022-10-13T01:32:03;19.80;;;14.60;;
4365;SDS011;2196;47.422;9.656;2022-10-13T01:34:34;24.80;;;16.83;;
4365;SDS011;2196;47.422;9.656;2022-10-13T01:37:08;20.30;;;15.93;;
4365;SDS011;2196;47.422;9.656;2022-10-13T01:39:44;27.10;;;18.93;;
4365;SDS011;2196;47.422;9.656;2022-10-13T01:42:18;26.77;;;17.70;;
4365;SDS011;2196;47.422;9.656;2022-10-13T01:44:50;27.07;;;17.20;;
4365;SDS011;2196;47.422;9.656;2022-10-13T01:47:21;27.03;;;18.57;;
4365;SDS011;2196;47.422;9.656;2022-10-13T01:49:50;25.07;;;16.80;;
4365;SDS011;2196;47.422;9.656;2022-10-13T01:52:19;23.27;;;17.27;;
4365;SDS011;2196;47.422;9.656;2022-10-13T01:54:49;23.60;;;16.07;;
4365;SDS011;2196;47.422;9.656;2022-10-13T01:57:30;23.30;;;15.77;;
4365;SDS011;2196;47.422;9.656;2022-10-13T01:59:59;19.30;;;15.57;;
4365;SDS011;2196;47.422;9.656;2022-10-13T02:02:30;19.43;;;14.80;;
4365;SDS011;2196;47.422;9.656;2022-10-13T02:05:04;24.07;;;16.17;;
4365;SDS011;2196;47.422;9.656;2022-10-13T02:07:41;19.03;;;14.90;;
4365;SDS011;2196;47.422;9.656;2022-10-13T02:10:13;18.30;;;14.47;;
4365;SDS011;2196;47.422;9.656;2022-10-13T02:12:48;20.33;;;14.23;;
4365;SDS011;2196;47.422;9.656;2022-10-13T02:15:18;22.10;;;15.50;;
4365;SDS011;2196;47.422;9.656;2022-10-13T02:17:50;17.70;;;14.07;;
4365;SDS011;2196;47.422;9.656;2022-10-13T02:20:19;16.03;;;13.80;;
4365;SDS011;2196;47.422;9.656;2022-10-13T02:22:48;17.03;;;13.87;;
4365;SDS011;2196;47.422;9.656;2022-10-13T02:25:20;19.13;;;14.00;;
4365;SDS011;2196;47.422;9.656;2022-10-13T02:27:47;18.93;;;13.83;;
4365;SDS011;2196;47.422;9.656;2022-10-13T02:30:21;19.10;;;14.17;;
4365;SDS011;2196;47.422;9.656;2022-10-13T02:32:48;16.67;;;13.63;;
4365;SDS011;2196;47.422;9.656;2022-10-13T02:35:17;19.47;;;13.87;;
4365;SDS011;2196;47.422;9.656;2022-10-13T02:37:44;17.87;;;14.23;;
4365;SDS011;2196;47.422;9.656;2022-10-13T02:40:11;17.77;;;14.40;;
4365;SDS011;2196;47.422;9.656;2022-10-13T02:42:38;15.67;;;13.53;;
4365;SDS011;2196;47.422;9.656;2022-10-13T02:45:06;23.43;;;16.03;;
4365;SDS011;2196;47.422;9.656;2022-10-13T02:47:34;24.07;;;14.37;;
4365;SDS011;2196;47.422;9.656;2022-10-13T02:50:02;22.87;;;15.07;;
4365;SDS011;2196;47.422;9.656;2022-10-13T02:52:30;20.37;;;14.57;;
4365;SDS011;2196;47.422;9.656;2022-10-13T02:54:57;21.10;;;16.17;;
4365;SDS011;2196;47.422;9.656;2022-10-13T02:57:23;27.10;;;17.20;;
4365;SDS011;2196;47.422;9.656;2022-10-13T02:59:50;24.80;;;16.43;;
4365;SDS011;2196;47.422;9.656;2022-10-13T03:02:18;24.50;;;16.37;;
4365;SDS011;2196;47.422;9.656;2022-10-13T03:04:45;23.87;;;16.77;;
4365;SDS011;2196;47.422;9.656;2022-10-13T03:07:13;22.53;;;16.10;;
4365;SDS011;2196;47.422;9.656;2022-10-13T03:09:41;18.57;;;15.30;;
4365;SDS011;2196;47.422;9.656;2022-10-13T03:12:08;22.83;;;15.67;;
4365;SDS011;2196;47.422;9.656;2022-10-13T03:14:35;18.17;;;15.03;;
4365;SDS011;2196;47.422;9.656;2022-10-13T03:17:02;18.30;;;15.40;;
4365;SDS011;2196;47.422;9.656;2022-10-13T03:19:29;22.30;;;14.63;;
4365;SDS011;2196;47.422;9.656;2022-10-13T03:21:56;18.27;;;14.63;;
4365;SDS011;2196;47.422;9.656;2022-10-13T03:24:25;15.87;;;13.57;;
4365;SDS011;2196;47.422;9.656;2022-10-13T03:26:52;25.30;;;14.37;;
4365;SDS011;2196;47.422;9.656;2022-10-13T03:29:19;25.20;;;16.93;;
4365;SDS011;2196;47.422;9.656;2022-10-13T03:31:46;21.63;;;15.20;;
4365;SDS011;2196;47.422;9.656;2022-10-13T03:34:14;19.90;;;14.33;;
4365;SDS011;2196;47.422;9.656;2022-10-13T03:36:41;24.53;;;17.60;;
4365;SDS011;2196;47.422;9.656;2022-10-13T03:39:08;21.33;;;16.23;;
4365;SDS011;2196;47.422;9.656;2022-10-13T03:41:37;23.23;;;16.00;;
4365;SDS011;2196;47.422;9.656;2022-10-13T03:44:04;22.63;;;15.97;;
4365;SDS011;2196;47.422;9.656;2022-10-13T03:46:31;19.17;;;14.03;;
4365;SDS011;2196;47.422;9.656;2022-10-13T03:48:59;28.10;;;16.93;;
4365;SDS011;2196;47.422;9.656;2022-10-13T03:51:26;18.67;;;14.17;;
4365;SDS011;2196;47.422;9.656;2022-10-13T03:53:53;22.30;;;17.23;;
4365;SDS011;2196;47.422;9.656;2022-10-13T03:56:20;18.50;;;14.03;;
4365;SDS011;2196;47.422;9.656;2022-10-13T03:58:50;19.83;;;14.93;;
4365;SDS011;2196;47.422;9.656;2022-10-13T04:01:18;25.50;;;14.97;;
4365;SDS011;2196;47.422;9.656;2022-10-13T04:03:46;22.47;;;14.30;;
4365;SDS011;2196;47.422;9.656;2022-10-13T04:06:13;25.30;;;15.20;;
4365;SDS011;2196;47.422;9.656;2022-10-13T04:08:42;22.37;;;13.80;;
4365;SDS011;2196;47.422;9.656;2022-10-13T04:11:10;20.20;;;14.07;;
4365;SDS011;2196;47.422;9.656;2022-10-13T04:13:39;16.37;;;12.80;;
4365;SDS011;2196;47.422;9.656;2022-10-13T04:16:13;16.63;;;13.80;;
4365;SDS011;2196;47.422;9.656;2022-10-13T04:18:44;14.50;;;12.17;;
4365;SDS011;2196;47.422;9.656;2022-10-13T04:21:16;15.80;;;12.30;;
4365;SDS011;2196;47.422;9.656;2022-10-13T04:23:43;14.10;;;12.17;;
4365;SDS011;2196;47.422;9.656;2022-10-13T04:26:15;14.73;;;13.07;;
4365;SDS011;2196;47.422;9.656;2022-10-13T04:28:45;16.00;;;11.33;;
4365;SDS011;2196;47.422;9.656;2022-10-13T04:31:14;13.27;;;11.20;;
4365;SDS011;2196;47.422;9.656;2022-10-13T04:33:43;14.37;;;12.40;;
4365;SDS011;2196;47.422;9.656;2022-10-13T04:36:11;13.93;;;12.40;;
4365;SDS011;2196;47.422;9.656;2022-10-13T04:38:42;18.87;;;11.90;;
4365;SDS011;2196;47.422;9.656;2022-10-13T04:41:12;17.23;;;12.50;;
4365;SDS011;2196;47.422;9.656;2022-10-13T04:43:42;15.47;;;12.40;;
4365;SDS011;2196;47.422;9.656;2022-10-13T04:46:11;16.73;;;12.67;;
4365;SDS011;2196;47.422;9.656;2022-10-13T04:48:42;17.30;;;12.90;;
4365;SDS011;2196;47.422;9.656;2022-10-13T04:51:10;17.17;;;13.13;;
4365;SDS011;2196;47.422;9.656;2022-10-13T04:53:40;16.27;;;12.47;;
4365;SDS011;2196;47.422;9.656;2022-10-13T04:56:08;20.97;;;14.30;;
4365;SDS011;2196;47.422;9.656;2022-10-13T04:58:38;15.50;;;12.00;;
4365;SDS011;2196;47.422;9.656;2022-10-13T05:01:10;17.83;;;12.33;;
4365;SDS011;2196;47.422;9.656;2022-10-13T05:03:43;18.03;;;13.20;;
4365;SDS011;2196;47.422;9.656;2022-10-13T05:06:13;18.97;;;13.00;;
4365;SDS011;2196;47.422;9.656;2022-10-13T05:08:45;16.70;;;11.50;;
4365;SDS011;2196;47.422;9.656;2022-10-13T05:11:12;15.30;;;13.07;;
4365;SDS011;2196;47.422;9.656;2022-10-13T05:13:39;18.63;;;13.73;;
4365;SDS011;2196;47.422;9.656;2022-10-13T05:16:06;20.67;;;14.93;;
4365;SDS011;2196;47.422;9.656;2022-10-13T05:18:34;17.87;;;14.43;;
4365;SDS011;2196;47.422;9.656;2022-10-13T05:21:06;22.13;;;14.30;;
4365;SDS011;2196;47.422;9.656;2022-10-13T05:23:35;19.63;;;13.13;;
4365;SDS011;2196;47.422;9.656;2022-10-13T05:26:03;15.20;;;13.53;;
4365;SDS011;2196;47.422;9.656;2022-10-13T05:28:31;20.77;;;13.03;;
4365;SDS011;2196;47.422;9.656;2022-10-13T05:31:06;23.10;;;16.47;;
4365;SDS011;2196;47.422;9.656;2022-10-13T05:33:35;21.63;;;16.10;;
4365;SDS011;2196;47.422;9.656;2022-10-13T05:36:08;22.87;;;17.23;;
4365;SDS011;2196;47.422;9.656;2022-10-13T05:38:39;20.70;;;15.27;;
4365;SDS011;2196;47.422;9.656;2022-10-13T05:41:08;21.97;;;15.40;;
4365;SDS011;2196;47.422;9.656;2022-10-13T05:43:36;16.50;;;13.80;;
4365;SDS011;2196;47.422;9.656;2022-10-13T05:46:08;16.77;;;12.73;;
4365;SDS011;2196;47.422;9.656;2022-10-13T05:48:35;16.47;;;12.43;;
4365;SDS011;2196;47.422;9.656;2022-10-13T05:51:08;18.93;;;13.83;;
4365;SDS011;2196;47.422;9.656;2022-10-13T05:53:42;18.40;;;13.87;;
4365;SDS011;2196;47.422;9.656;2022-10-13T05:56:13;17.13;;;12.77;;
4365;SDS011;2196;47.422;9.656;2022-10-13T05:58:45;16.03;;;13.07;;
4365;SDS011;2196;47.422;9.656;2022-10-13T06:01:16;15.30;;;12.33;;
4365;SDS011;2196;47.422;9.656;2022-10-13T06:03:45;15.77;;;12.50;;
4365;SDS011;2196;47.422;9.656;2022-10-13T06:06:15;19.23;;;12.77;;
4365;SDS011;2196;47.422;9.656;2022-10-13T06:08:45;16.07;;;12.40;;
4365;SDS011;2196;47.422;9.656;2022-10-13T06:11:12;18.13;;;14.23;;
4365;SDS011;2196;47.422;9.656;2022-10-13T06:13:39;15.57;;;11.87;;
4365;SDS011;2196;47.422;9.656;2022-10-13T06:16:06;21.27;;;12.27;;
4365;SDS011;2196;47.422;9.656;2022-10-13T06:18:33;20.07;;;12.93;;
4365;SDS011;2196;47.422;9.656;2022-10-13T06:21:00;23.27;;;13.30;;
4365;SDS011;2196;47.422;9.656;2022-10-13T06:23:29;18.17;;;11.03;;
4365;SDS011;2196;47.422;9.656;2022-10-13T06:25:56;17.77;;;11.23;;
4365;SDS011;2196;47.422;9.656;2022-10-13T06:28:23;15.23;;;11.50;;
4365;SDS011;2196;47.422;9.656;2022-10-13T06:30:51;17.27;;;12.17;;
4365;SDS011;2196;47.422;9.656;2022-10-13T06:33:21;14.80;;;11.47;;
4365;SDS011;2196;47.422;9.656;2022-10-13T06:35:48;13.83;;;12.07;;
4365;SDS011;2196;47.422;9.656;2022-10-13T06:38:15;13.63;;;11.23;;
4365;SDS011;2196;47.422;9.656;2022-10-13T06:40:44;16.63;;;10.80;;
4365;SDS011;2196;47.422;9.656;2022-10-13T06:43:11;15.30;;;11.30;;
4365;SDS011;2196;47.422;9.656;2022-10-13T06:45:38;15.17;;;11.17;;
4365;SDS011;2196;47.422;9.656;2022-10-13T06:48:05;12.17;;;9.33;;
4365;SDS011;2196;47.422;9.656;2022-10-13T06:50:32;9.77;;;8.50;;
4365;SDS011;2196;47.422;9.656;2022-10-13T06:52:59;11.90;;;9.80;;
4365;SDS011;2196;47.422;9.656;2022-10-13T06:55:26;11.50;;;8.47;;
4365;SDS011;2196;47.422;9.656;2022-10-13T06:57:54;16.77;;;9.13;;
4365;SDS011;2196;47.422;9.656;2022-10-13T07:00:21;16.57;;;8.57;;
4365;SDS011;2196;47.422;9.656;2022-10-13T07:02:49;11.63;;;9.37;;
4365;SDS011;2196;47.422;9.656;2022-10-13T07:05:17;14.87;;;9.13;;
4365;SDS011;2196;47.422;9.656;2022-10-13T07:07:44;9.87;;;7.77;;
4365;SDS011;2196;47.422;9.656;2022-10-13T07:10:11;10.27;;;8.47;;
4365;SDS011;2196;47.422;9.656;2022-10-13T07:12:38;11.80;;;8.40;;
4365;SDS011;2196;47.422;9.656;2022-10-13T07:15:07;8.97;;;7.10;;
4365;SDS011;2196;47.422;9.656;2022-10-13T07:17:34;10.10;;;8.20;;
4365;SDS011;2196;47.422;9.656;2022-10-13T07:20:01;10.03;;;9.10;;
4365;SDS011;2196;47.422;9.656;2022-10-13T07:22:28;8.77;;;7.97;;
4365;SDS011;2196;47.422;9.656;2022-10-13T07:24:56;9.37;;;8.37;;
4365;SDS011;2196;47.422;9.656;2022-10-13T07:27:23;10.77;;;9.67;;
4365;SDS011;2196;47.422;9.656;2022-10-13T07:29:50;9.37;;;8.40;;
4365;SDS011;2196;47.422;9.656;2022-10-13T07:32:18;15.33;;;9.93;;
4365;SDS011;2196;47.422;9.656;2022-10-13T07:34:46;12.17;;;8.47;;
4365;SDS011;2196;47.422;9.656;2022-10-13T07:37:13;12.53;;;8.60;;
4365;SDS011;2196;47.422;9.656;2022-10-13T07:39:40;12.57;;;9.63;;
4365;SDS011;2196;47.422;9.656;2022-10-13T07:42:07;14.97;;;7.50;;
4365;SDS011;2196;47.422;9.656;2022-10-13T07:44:34;8.33;;;7.37;;
4365;SDS011;2196;47.422;9.656;2022-10-13T07:47:01;10.33;;;8.10;;
4365;SDS011;2196;47.422;9.656;2022-10-13T07:49:29;11.60;;;9.30;;
4365;SDS011;2196;47.422;9.656;2022-10-13T07:51:56;11.50;;;7.93;;
4365;SDS011;2196;47.422;9.656;2022-10-13T07:54:23;9.00;;;8.10;;
4365;SDS011;2196;47.422;9.656;2022-10-13T07:56:50;10.77;;;6.53;;
4365;SDS011;2196;47.422;9.656;2022-10-13T07:59:18;10.63;;;7.23;;
4365;SDS011;2196;47.422;9.656;2022-10-13T08:01:45;8.47;;;6.47;;
4365;SDS011;2196;47.422;9.656;2022-10-13T08:04:12;10.87;;;6.57;;
4365;SDS011;2196;47.422;9.656;2022-10-13T08:06:41;6.70;;;6.07;;
4365;SDS011;2196;47.422;9.656;2022-10-13T08:09:08;10.13;;;7.10;;
4365;SDS011;2196;47.422;9.656;2022-10-13T08:11:35;9.77;;;7.57;;
4365;SDS011;2196;47.422;9.656;2022-10-13T08:14:02;12.33;;;7.03;;
4365;SDS011;2196;47.422;9.656;2022-10-13T08:16:29;13.83;;;7.20;;
4365;SDS011;2196;47.422;9.656;2022-10-13T08:18:57;10.60;;;7.87;;
4365;SDS011;2196;47.422;9.656;2022-10-13T08:21:25;8.80;;;6.87;;
4365;SDS011;2196;47.422;9.656;2022-10-13T08:23:54;7.93;;;5.77;;
4365;SDS011;2196;47.422;9.656;2022-10-13T08:26:22;6.93;;;6.23;;
4365;SDS011;2196;47.422;9.656;2022-10-13T08:28:51;7.07;;;6.57;;
4365;SDS011;2196;47.422;9.656;2022-10-13T08:31:18;8.87;;;7.10;;
4365;SDS011;2196;47.422;9.656;2022-10-13T08:33:45;11.27;;;6.53;;
4365;SDS011;2196;47.422;9.656;2022-10-13T08:36:13;11.80;;;8.13;;
4365;SDS011;2196;47.422;9.656;2022-10-13T08:38:40;7.57;;;6.83;;
4365;SDS011;2196;47.422;9.656;2022-10-13T08:41:14;7.93;;;7.17;;
4365;SDS011;2196;47.422;9.656;2022-10-13T08:43:43;6.87;;;6.23;;
4365;SDS011;2196;47.422;9.656;2022-10-13T08:46:14;10.53;;;6.80;;
4365;SDS011;2196;47.422;9.656;2022-10-13T08:48:45;7.67;;;6.87;;
4365;SDS011;2196;47.422;9.656;2022-10-13T08:51:13;8.77;;;7.87;;
4365;SDS011;2196;47.422;9.656;2022-10-13T08:53:42;8.23;;;7.13;;
4365;SDS011;2196;47.422;9.656;2022-10-13T08:56:14;7.77;;;6.77;;
4365;SDS011;2196;47.422;9.656;2022-10-13T08:58:45;7.50;;;6.67;;
4365;SDS011;2196;47.422;9.656;2022-10-13T09:01:15;9.80;;;7.53;;
4365;SDS011;2196;47.422;9.656;2022-10-13T09:03:47;6.90;;;6.30;;
4365;SDS011;2196;47.422;9.656;2022-10-13T09:06:18;10.57;;;7.13;;
4365;SDS011;2196;47.422;9.656;2022-10-13T09:08:53;11.17;;;6.47;;
4365;SDS011;2196;47.422;9.656;2022-10-13T09:11:25;6.23;;;5.73;;
4365;SDS011;2196;47.422;9.656;2022-10-13T09:13:54;6.30;;;5.70;;
4365;SDS011;2196;47.422;9.656;2022-10-13T09:16:27;8.37;;;6.80;;
4365;SDS011;2196;47.422;9.656;2022-10-13T09:19:08;7.23;;;6.47;;
4365;SDS011;2196;47.422;9.656;2022-10-13T09:21:45;9.07;;;5.30;;
4365;SDS011;2196;47.422;9.656;2022-10-13T09:24:13;10.20;;;6.13;;
4365;SDS011;2196;47.422;9.656;2022-10-13T09:26:43;7.20;;;6.00;;
4365;SDS011;2196;47.422;9.656;2022-10-13T09:29:14;10.13;;;5.83;;
4365;SDS011;2196;47.422;9.656;2022-10-13T09:31:43;6.07;;;5.47;;
4365;SDS011;2196;47.422;9.656;2022-10-13T09:34:12;6.67;;;6.03;;
4365;SDS011;2196;47.422;9.656;2022-10-13T09:36:54;8.03;;;6.40;;
4365;SDS011;2196;47.422;9.656;2022-10-13T09:39:22;20.17;;;7.23;;
4365;SDS011;2196;47.422;9.656;2022-10-13T09:41:51;11.33;;;6.60;;
4365;SDS011;2196;47.422;9.656;2022-10-13T09:44:25;7.87;;;6.87;;
4365;SDS011;2196;47.422;9.656;2022-10-13T09:46:54;10.30;;;8.83;;
4365;SDS011;2196;47.422;9.656;2022-10-13T09:49:33;7.10;;;6.47;;
4365;SDS011;2196;47.422;9.656;2022-10-13T09:52:04;8.83;;;7.23;;
4365;SDS011;2196;47.422;9.656;2022-10-13T09:54:36;13.30;;;8.87;;
4365;SDS011;2196;47.422;9.656;2022-10-13T09:57:10;8.33;;;7.27;;
4365;SDS011;2196;47.422;9.656;2022-10-13T09:59:44;8.53;;;7.73;;
4365;SDS011;2196;47.422;9.656;2022-10-13T10:02:16;11.13;;;6.80;;
4365;SDS011;2196;47.422;9.656;2022-10-13T10:04:48;11.07;;;7.97;;
4365;SDS011;2196;47.422;9.656;2022-10-13T10:07:19;7.33;;;6.73;;
4365;SDS011;2196;47.422;9.656;2022-10-13T10:09:51;9.00;;;7.47;;
4365;SDS011;2196;47.422;9.656;2022-10-13T10:12:22;10.00;;;7.40;;
4365;SDS011;2196;47.422;9.656;2022-10-13T10:14:55;7.63;;;7.00;;
4365;SDS011;2196;47.422;9.656;2022-10-13T10:17:23;9.70;;;7.00;;
4365;SDS011;2196;47.422;9.656;2022-10-13T10:20:02;12.90;;;7.33;;
4365;SDS011;2196;47.422;9.656;2022-10-13T10:22:39;7.30;;;6.67;;
4365;SDS011;2196;47.422;9.656;2022-10-13T10:25:17;7.53;;;6.87;;
4365;SDS011;2196;47.422;9.656;2022-10-13T10:27:58;9.80;;;8.80;;
4365;SDS011;2196;47.422;9.656;2022-10-13T10:30:42;7.87;;;7.13;;
4365;SDS011;2196;47.422;9.656;2022-10-13T10:33:17;10.97;;;8.23;;
4365;SDS011;2196;47.422;9.656;2022-10-13T10:35:47;11.57;;;8.00;;
4365;SDS011;2196;47.422;9.656;2022-10-13T10:38:22;9.60;;;8.70;;
4365;SDS011;2196;47.422;9.656;2022-10-13T10:40:58;10.87;;;9.77;;
4365;SDS011;2196;47.422;9.656;2022-10-13T10:43:35;10.57;;;9.13;;
4365;SDS011;2196;47.422;9.656;2022-10-13T10:46:14;16.80;;;10.60;;
4365;SDS011;2196;47.422;9.656;2022-10-13T10:48:42;11.50;;;10.30;;
4365;SDS011;2196;47.422;9.656;2022-10-13T10:51:11;11.20;;;9.13;;
4365;SDS011;2196;47.422;9.656;2022-10-13T10:53:43;11.77;;;10.00;;
4365;SDS011;2196;47.422;9.656;2022-10-13T10:56:20;17.27;;;9.17;;
4365;SDS011;2196;47.422;9.656;2022-10-13T10:59:00;11.73;;;8.93;;
4365;SDS011;2196;47.422;9.656;2022-10-13T11:01:42;10.47;;;9.23;;
4365;SDS011;2196;47.422;9.656;2022-10-13T11:04:23;10.80;;;8.97;;
4365;SDS011;2196;47.422;9.656;2022-10-13T11:06:59;14.10;;;10.20;;
4365;SDS011;2196;47.422;9.656;2022-10-13T11:15:28;12.57;;;9.37;;
4365;SDS011;2196;47.422;9.656;2022-10-13T11:21:07;11.70;;;8.17;;
4365;SDS011;2196;47.422;9.656;2022-10-13T11:23:34;11.03;;;7.77;;
4365;SDS011;2196;47.422;9.656;2022-10-13T11:26:18;9.27;;;8.30;;
4365;SDS011;2196;47.422;9.656;2022-10-13T11:28:57;11.20;;;9.33;;
4365;SDS011;2196;47.422;9.656;2022-10-13T11:31:30;12.57;;;9.63;;
4365;SDS011;2196;47.422;9.656;2022-10-13T11:34:24;8.27;;;7.50;;
4365;SDS011;2196;47.422;9.656;2022-10-13T11:36:54;12.20;;;9.90;;
4365;SDS011;2196;47.422;9.656;2022-10-13T11:42:37;12.13;;;9.00;;
4365;SDS011;2196;47.422;9.656;2022-10-13T11:45:26;9.77;;;8.53;;
4365;SDS011;2196;47.422;9.656;2022-10-13T11:51:34;10.53;;;9.23;;
4365;SDS011;2196;47.422;9.656;2022-10-13T11:54:13;9.57;;;8.57;;
4365;SDS011;2196;47.422;9.656;2022-10-13T11:56:49;15.37;;;9.20;;
4365;SDS011;2196;47.422;9.656;2022-10-13T11:59:21;10.93;;;9.13;;
4365;SDS011;2196;47.422;9.656;2022-10-13T12:01:54;11.23;;;8.77;;
4365;SDS011;2196;47.422;9.656;2022-10-13T12:04:23;9.00;;;7.43;;
4365;SDS011;2196;47.422;9.656;2022-10-13T12:06:54;9.23;;;8.30;;
4365;SDS011;2196;47.422;9.656;2022-10-13T12:09:25;9.00;;;8.10;;
4365;SDS011;2196;47.422;9.656;2022-10-13T12:11:56;7.93;;;7.23;;
4365;SDS011;2196;47.422;9.656;2022-10-13T12:14:28;10.27;;;7.80;;
4365;SDS011;2196;47.422;9.656;2022-10-13T12:16:58;7.50;;;6.90;;
4365;SDS011;2196;47.422;9.656;2022-10-13T12:19:27;9.53;;;7.00;;
4365;SDS011;2196;47.422;9.656;2022-10-13T12:21:57;7.40;;;6.10;;
4365;SDS011;2196;47.422;9.656;2022-10-13T12:24:26;8.17;;;7.37;;
4365;SDS011;2196;47.422;9.656;2022-10-13T12:26:55;8.23;;;6.13;;
4365;SDS011;2196;47.422;9.656;2022-10-13T12:29:23;15.17;;;6.87;;
4365;SDS011;2196;47.422;9.656;2022-10-13T12:31:51;12.43;;;7.93;;
4365;SDS011;2196;47.422;9.656;2022-10-13T12:34:22;11.43;;;7.00;;
4365;SDS011;2196;47.422;9.656;2022-10-13T12:36:52;7.43;;;6.13;;
4365;SDS011;2196;47.422;9.656;2022-10-13T12:39:23;8.67;;;7.07;;
4365;SDS011;2196;47.422;9.656;2022-10-13T12:41:52;6.87;;;6.20;;
4365;SDS011;2196;47.422;9.656;2022-10-13T12:44:21;8.20;;;7.23;;
4365;SDS011;2196;47.422;9.656;2022-10-13T12:46:50;7.33;;;6.73;;
4365;SDS011;2196;47.422;9.656;2022-10-13T12:49:21;7.43;;;6.67;;
4365;SDS011;2196;47.422;9.656;2022-10-13T12:51:49;9.23;;;8.27;;
4365;SDS011;2196;47.422;9.656;2022-10-13T12:54:25;8.97;;;7.60;;
4365;SDS011;2196;47.422;9.656;2022-10-13T12:56:55;7.93;;;7.00;;
4365;SDS011;2196;47.422;9.656;2022-10-13T12:59:24;8.77;;;6.50;;
4365;SDS011;2196;47.422;9.656;2022-10-13T13:01:57;7.80;;;6.47;;
4365;SDS011;2196;47.422;9.656;2022-10-13T13:04:30;8.13;;;7.30;;
4365;SDS011;2196;47.422;9.656;2022-10-13T13:07:19;9.63;;;8.73;;
4365;SDS011;2196;47.422;9.656;2022-10-13T13:10:00;13.77;;;8.63;;
4365;SDS011;2196;47.422;9.656;2022-10-13T13:12:36;9.90;;;8.30;;
4365;SDS011;2196;47.422;9.656;2022-10-13T13:15:16;18.53;;;7.67;;
4365;SDS011;2196;47.422;9.656;2022-10-13T13:17:45;12.37;;;8.20;;
4365;SDS011;2196;47.422;9.656;2022-10-13T13:20:19;11.50;;;8.70;;
4365;SDS011;2196;47.422;9.656;2022-10-13T13:22:49;11.37;;;9.03;;
4365;SDS011;2196;47.422;9.656;2022-10-13T13:25:18;10.00;;;9.10;;
4365;SDS011;2196;47.422;9.656;2022-10-13T13:27:45;11.93;;;7.77;;
4365;SDS011;2196;47.422;9.656;2022-10-13T13:30:13;8.60;;;7.33;;
4365;SDS011;2196;47.422;9.656;2022-10-13T13:32:40;9.53;;;8.63;;
4365;SDS011;2196;47.422;9.656;2022-10-13T13:35:08;13.00;;;8.40;;
4365;SDS011;2196;47.422;9.656;2022-10-13T13:37:35;9.70;;;8.67;;
4365;SDS011;2196;47.422;9.656;2022-10-13T13:40:04;10.77;;;7.43;;
4365;SDS011;2196;47.422;9.656;2022-10-13T13:42:34;13.40;;;9.77;;
4365;SDS011;2196;47.422;9.656;2022-10-13T13:45:01;9.27;;;7.97;;
4365;SDS011;2196;47.422;9.656;2022-10-13T13:47:29;11.20;;;8.90;;
4365;SDS011;2196;47.422;9.656;2022-10-13T13:49:56;17.87;;;10.37;;
4365;SDS011;2196;47.422;9.656;2022-10-13T13:52:24;12.07;;;10.47;;
4365;SDS011;2196;47.422;9.656;2022-10-13T13:54:51;20.63;;;11.50;;
4365;SDS011;2196;47.422;9.656;2022-10-13T13:57:20;12.50;;;10.40;;
4365;SDS011;2196;47.422;9.656;2022-10-13T13:59:49;13.37;;;10.70;;
4365;SDS011;2196;47.422;9.656;2022-10-13T14:02:17;17.30;;;11.70;;
4365;SDS011;2196;47.422;9.656;2022-10-13T14:04:46;15.93;;;11.07;;
4365;SDS011;2196;47.422;9.656;2022-10-13T14:07:13;11.33;;;10.23;;
4365;SDS011;2196;47.422;9.656;2022-10-13T14:09:41;11.93;;;10.70;;
4365;SDS011;2196;47.422;9.656;2022-10-13T14:12:08;14.90;;;11.13;;
4365;SDS011;2196;47.422;9.656;2022-10-13T14:14:35;10.47;;;8.57;;
4365;SDS011;2196;47.422;9.656;2022-10-13T14:17:04;14.37;;;10.87;;
4365;SDS011;2196;47.422;9.656;2022-10-13T14:19:31;11.87;;;9.97;;
4365;SDS011;2196;47.422;9.656;2022-10-13T14:21:59;14.00;;;9.97;;
4365;SDS011;2196;47.422;9.656;2022-10-13T14:24:26;11.27;;;10.00;;
4365;SDS011;2196;47.422;9.656;2022-10-13T14:26:53;13.17;;;11.13;;
4365;SDS011;2196;47.422;9.656;2022-10-13T14:29:22;13.53;;;11.47;;
4365;SDS011;2196;47.422;9.656;2022-10-13T14:31:50;16.27;;;11.90;;
4365;SDS011;2196;47.422;9.656;2022-10-13T14:34:18;11.70;;;10.30;;
4365;SDS011;2196;47.422;9.656;2022-10-13T14:36:45;14.60;;;11.07;;
4365;SDS011;2196;47.422;9.656;2022-10-13T14:39:12;14.83;;;11.40;;
4365;SDS011;2196;47.422;9.656;2022-10-13T14:41:39;16.07;;;12.90;;
4365;SDS011;2196;47.422;9.656;2022-10-13T14:44:08;16.97;;;12.70;;
4365;SDS011;2196;47.422;9.656;2022-10-13T14:46:37;15.80;;;12.60;;
4365;SDS011;2196;47.422;9.656;2022-10-13T14:49:04;14.30;;;11.83;;
4365;SDS011;2196;47.422;9.656;2022-10-13T14:51:32;16.37;;;11.93;;
4365;SDS011;2196;47.422;9.656;2022-10-13T14:53:59;16.40;;;12.87;;
4365;SDS011;2196;47.422;9.656;2022-10-13T14:56:28;17.00;;;11.87;;
4365;SDS011;2196;47.422;9.656;2022-10-13T14:58:57;15.57;;;11.03;;
4365;SDS011;2196;47.422;9.656;2022-10-13T15:01:25;14.57;;;11.60;;
4365;SDS011;2196;47.422;9.656;2022-10-13T15:03:52;17.17;;;14.00;;
4365;SDS011;2196;47.422;9.656;2022-10-13T15:06:19;18.63;;;12.83;;
4365;SDS011;2196;47.422;9.656;2022-10-13T15:08:49;17.47;;;12.63;;
4365;SDS011;2196;47.422;9.656;2022-10-13T15:11:17;14.77;;;12.30;;
4365;SDS011;2196;47.422;9.656;2022-10-13T15:13:45;19.53;;;14.80;;
4365;SDS011;2196;47.422;9.656;2022-10-13T15:16:13;18.50;;;13.10;;
4365;SDS011;2196;47.422;9.656;2022-10-13T15:18:42;19.57;;;12.60;;
4365;SDS011;2196;47.422;9.656;2022-10-13T15:21:09;13.77;;;11.73;;
4365;SDS011;2196;47.422;9.656;2022-10-13T15:23:39;15.33;;;12.73;;
4365;SDS011;2196;47.422;9.656;2022-10-13T15:26:08;16.63;;;13.20;;
4365;SDS011;2196;47.422;9.656;2022-10-13T15:28:37;15.13;;;13.60;;
4365;SDS011;2196;47.422;9.656;2022-10-13T15:31:09;13.63;;;11.17;;